Time,TemperatureF,DewpointF,PressureIn,WindDirection,WindDirectionDegrees,WindSpeedMPH,WindSpeedGustMPH,Humidity,HourlyPrecipIn,Conditions,Clouds,dailyrainin,SoftwareType,DateUTC
2013-11-21 00:07:00,70.0,68.0,29.96,North,5,0.0,0.0,94,0.00,,,0.00,weatherlink.com 1.10,2013-11-21 10:07:00,
2013-11-21 00:25:00,69.9,68.0,29.96,North,5,0.0,0.0,94,0.00,,,0.00,weatherlink.com 1.10,2013-11-21 10:25:00,
2013-11-21 00:42:00,69.6,68.0,29.95,North,5,0.0,0.0,94,0.00,,,0.00,weatherlink.com 1.10,2013-11-21 10:42:00,
2013-11-21 00:59:00,69.3,67.0,29.95,North,5,0.0,0.0,94,0.00,,,0.00,weatherlink.com 1.10,2013-11-21 10:59:00,
2013-11-21 01:17:00,68.9,67.0,29.94,North,5,0.0,0.0,94,0.00,,,0.00,weatherlink.com 1.10,2013-11-21 11:17:00,
2013-11-21 01:34:00,68.6,67.0,29.94,North,5,0.0,0.0,94,0.00,,,0.00,weatherlink.com 1.10,2013-11-21 11:34:00,
2013-11-21 01:52:00,68.7,67.0,29.93,North,5,0.0,0.0,94,0.00,,,0.00,weatherlink.com 1.10,2013-11-21 11:52:00,
2013-11-21 02:09:00,68.5,67.0,29.93,North,5,0.0,0.0,94,0.00,,,0.00,weatherlink.com 1.10,2013-11-21 12:09:00,
2013-11-21 02:26:00,68.5,67.0,29.92,North,5,0.0,0.0,94,0.00,,,0.00,weatherlink.com 1.10,2013-11-21 12:26:00,
2013-11-21 02:44:00,68.1,66.0,29.91,North,5,0.0,0.0,94,0.00,,,0.00,weatherlink.com 1.10,2013-11-21 12:44:00,
2013-11-21 03:01:00,68.0,66.0,29.92,North,5,0.0,0.0,94,0.00,,,0.00,weatherlink.com 1.10,2013-11-21 13:01:00,
2013-11-21 03:19:00,68.1,67.0,29.91,North,5,0.0,0.0,95,0.00,,,0.00,weatherlink.com 1.10,2013-11-21 13:19:00,
2013-11-21 03:36:00,67.9,66.0,29.91,North,5,0.0,0.0,94,0.00,,,0.00,weatherlink.com 1.10,2013-11-21 13:36:00,
2013-11-21 03:53:00,68.1,67.0,29.92,North,5,0.0,0.0,95,0.00,,,0.00,weatherlink.com 1.10,2013-11-21 13:53:00,
2013-11-21 04:10:00,69.1,67.0,29.92,North,360,0.0,0.0,94,0.00,,,0.00,weatherlink.com 1.10,2013-11-21 14:10:00,
2013-11-21 04:28:00,69.5,68.0,29.93,North,360,0.0,0.0,94,0.00,,,0.00,weatherlink.com 1.10,2013-11-21 14:28:00,
2013-11-21 04:45:00,69.8,68.0,29.93,North,360,0.0,0.0,93,0.00,,,0.00,weatherlink.com 1.10,2013-11-21 14:45:00,
2013-11-21 05:02:00,69.7,68.0,29.93,North,360,0.0,0.0,93,0.00,,,0.00,weatherlink.com 1.10,2013-11-21 15:02:00,
2013-11-21 05:20:00,69.6,67.0,29.93,North,360,0.0,0.0,93,0.00,,,0.00,weatherlink.com 1.10,2013-11-21 15:20:00,
2013-11-21 05:37:00,69.4,67.0,29.94,North,360,0.0,0.0,93,0.00,,,0.00,weatherlink.com 1.10,2013-11-21 15:37:00,
2013-11-21 05:57:00,69.4,68.0,29.94,North,360,0.0,0.0,94,0.00,,,0.00,weatherlink.com 1.10,2013-11-21 15:57:00,
2013-11-21 06:14:00,69.3,67.0,29.95,North,360,0.0,0.0,94,0.00,,,0.00,weatherlink.com 1.10,2013-11-21 16:14:00,
2013-11-21 06:32:00,69.3,67.0,29.97,North,360,0.0,0.0,94,0.00,,,0.00,weatherlink.com 1.10,2013-11-21 16:32:00,
2013-11-21 06:49:00,69.4,68.0,29.97,North,360,0.0,0.0,94,0.00,,,0.00,weatherlink.com 1.10,2013-11-21 16:49:00,
2013-11-21 07:06:00,69.5,68.0,29.98,North,360,0.0,0.0,94,0.00,,,0.00,weatherlink.com 1.10,2013-11-21 17:06:00,
2013-11-21 07:23:00,69.7,68.0,29.98,North,360,0.0,0.0,94,0.00,,,0.00,weatherlink.com 1.10,2013-11-21 17:23:00,
2013-11-21 07:41:00,70.1,68.0,29.98,North,360,0.0,0.0,94,0.00,,,0.00,weatherlink.com 1.10,2013-11-21 17:41:00,
2013-11-21 07:58:00,70.6,69.0,29.99,North,360,0.0,0.0,95,0.00,,,0.00,weatherlink.com 1.10,2013-11-21 17:58:00,
2013-11-21 08:16:00,71.5,70.0,30.00,North,360,0.0,0.0,95,0.00,,,0.00,weatherlink.com 1.10,2013-11-21 18:16:00,
2013-11-21 08:33:00,72.4,71.0,30.00,North,360,0.0,0.0,94,0.00,,,0.00,weatherlink.com 1.10,2013-11-21 18:33:00,
2013-11-21 08:51:00,73.4,72.0,30.01,North,360,0.0,0.0,94,0.00,,,0.00,weatherlink.com 1.10,2013-11-21 18:51:00,
2013-11-21 09:08:00,75.0,73.0,30.02,North,360,0.0,0.0,94,0.00,,,0.00,weatherlink.com 1.10,2013-11-21 19:08:00,
2013-11-21 09:25:00,77.1,74.0,30.02,North,360,0.0,0.0,89,0.00,,,0.00,weatherlink.com 1.10,2013-11-21 19:25:00,
2013-11-21 09:43:00,79.2,72.0,30.02,North,360,0.0,0.0,79,0.00,,,0.00,weatherlink.com 1.10,2013-11-21 19:43:00,
2013-11-21 10:01:00,81.1,72.0,30.02,NNW,343,0.0,3.0,74,0.00,,,0.00,weatherlink.com 1.10,2013-11-21 20:01:00,
2013-11-21 10:18:00,79.6,71.0,30.01,NNW,344,0.0,1.0,76,0.00,,,0.00,weatherlink.com 1.10,2013-11-21 20:18:00,
2013-11-21 10:35:00,79.1,72.0,30.01,NNW,344,0.0,0.0,79,0.00,,,0.00,weatherlink.com 1.10,2013-11-21 20:35:00,
2013-11-21 10:52:00,79.4,71.0,29.99,North,355,0.0,1.0,76,0.00,,,0.00,weatherlink.com 1.10,2013-11-21 20:52:00,
2013-11-21 11:10:00,79.3,71.0,29.98,SE,141,0.0,1.0,77,0.00,,,0.00,weatherlink.com 1.10,2013-11-21 21:10:00,
2013-11-21 11:27:00,80.0,71.0,29.97,ESE,109,0.0,5.0,75,0.00,,,0.00,weatherlink.com 1.10,2013-11-21 21:27:00,
2013-11-21 11:44:00,80.7,71.0,29.96,East,81,0.0,5.0,73,0.00,,,0.00,weatherlink.com 1.10,2013-11-21 21:44:00,
2013-11-21 12:02:00,81.4,72.0,29.96,ESE,111,1.0,5.0,73,0.00,,,0.00,weatherlink.com 1.10,2013-11-21 22:02:00,
2013-11-21 12:19:00,82.5,74.0,29.96,North,5,3.0,4.0,76,0.00,,,0.00,weatherlink.com 1.10,2013-11-21 22:19:00,
2013-11-21 12:36:00,83.1,74.0,29.95,NW,325,3.0,6.0,74,0.00,,,0.00,weatherlink.com 1.10,2013-11-21 22:36:00,
2013-11-21 12:53:00,83.1,74.0,29.94,NNW,329,0.0,7.0,73,0.00,,,0.00,weatherlink.com 1.10,2013-11-21 22:53:00,
2013-11-21 13:11:00,82.9,74.0,29.94,North,11,4.0,5.0,74,0.00,,,0.00,weatherlink.com 1.10,2013-11-21 23:11:00,
2013-11-21 13:28:00,83.0,73.0,29.93,NNW,327,0.0,8.0,72,0.00,,,0.00,weatherlink.com 1.10,2013-11-21 23:28:00,
2013-11-21 13:46:00,82.8,74.0,29.91,North,360,0.0,6.0,74,0.00,,,0.00,weatherlink.com 1.10,2013-11-21 23:46:00,
2013-11-21 14:04:00,82.5,73.0,29.91,East,83,0.0,1.0,73,0.00,,,0.00,weatherlink.com 1.10,2013-11-22 00:04:00,
2013-11-21 14:21:00,81.1,73.0,29.91,ENE,62,0.0,4.0,77,0.00,,,0.00,weatherlink.com 1.10,2013-11-22 00:21:00,
2013-11-21 14:38:00,80.4,73.0,29.91,NNE,30,0.0,1.0,79,0.00,,,0.00,weatherlink.com 1.10,2013-11-22 00:38:00,
2013-11-21 14:56:00,80.7,73.0,29.90,ESE,120,0.0,1.0,78,0.00,,,0.00,weatherlink.com 1.10,2013-11-22 00:56:00,
2013-11-21 15:13:00,81.6,73.0,29.90,ESE,121,0.0,2.0,75,0.00,,,0.00,weatherlink.com 1.10,2013-11-22 01:13:00,
2013-11-21 15:31:00,81.2,74.0,29.90,SSE,165,0.0,3.0,79,0.00,,,0.00,weatherlink.com 1.10,2013-11-22 01:31:00,
2013-11-21 15:48:00,81.0,74.0,29.90,ESE,104,0.0,1.0,79,0.00,,,0.00,weatherlink.com 1.10,2013-11-22 01:48:00,
2013-11-21 16:06:00,80.2,74.0,29.91,SSW,192,0.0,2.0,81,0.00,,,0.00,weatherlink.com 1.10,2013-11-22 02:06:00,
2013-11-21 16:23:00,79.3,73.0,29.91,South,185,1.0,5.0,82,0.00,,,0.00,weatherlink.com 1.10,2013-11-22 02:23:00,
2013-11-21 16:40:00,79.8,73.0,29.92,South,172,0.0,4.0,81,0.00,,,0.00,weatherlink.com 1.10,2013-11-22 02:40:00,
2013-11-21 16:57:00,79.2,73.0,29.92,South,169,0.0,0.0,81,0.00,,,0.00,weatherlink.com 1.10,2013-11-22 02:57:00,
2013-11-21 17:14:00,78.3,72.0,29.93,SSE,166,0.0,1.0,82,0.00,,,0.00,weatherlink.com 1.10,2013-11-22 03:14:00,
2013-11-21 17:32:00,77.6,72.0,29.93,SSE,165,0.0,0.0,82,0.00,,,0.00,weatherlink.com 1.10,2013-11-22 03:32:00,
2013-11-21 17:49:00,76.8,72.0,29.94,SSE,165,0.0,0.0,84,0.00,,,0.00,weatherlink.com 1.10,2013-11-22 03:49:00,
2013-11-21 18:07:00,75.5,71.0,29.95,SSE,165,0.0,0.0,86,0.00,,,0.00,weatherlink.com 1.10,2013-11-22 04:07:00,
2013-11-21 18:24:00,74.8,71.0,29.95,SSE,165,0.0,0.0,88,0.00,,,0.00,weatherlink.com 1.10,2013-11-22 04:24:00,
2013-11-21 18:42:00,74.0,71.0,29.95,SSE,165,0.0,0.0,89,0.00,,,0.00,weatherlink.com 1.10,2013-11-22 04:42:00,
2013-11-21 18:59:00,73.4,70.0,29.96,SSE,165,0.0,0.0,90,0.00,,,0.00,weatherlink.com 1.10,2013-11-22 04:59:00,
2013-11-21 19:17:00,73.1,70.0,29.97,SSE,165,0.0,0.0,91,0.00,,,0.00,weatherlink.com 1.10,2013-11-22 05:17:00,
2013-11-21 19:34:00,72.6,70.0,29.97,SSE,165,0.0,0.0,91,0.00,,,0.00,weatherlink.com 1.10,2013-11-22 05:34:00,
2013-11-21 19:51:00,72.1,69.0,29.97,SSE,165,0.0,0.0,91,0.00,,,0.00,weatherlink.com 1.10,2013-11-22 05:51:00,
2013-11-21 20:09:00,71.6,69.0,29.97,SSE,165,0.0,0.0,92,0.00,,,0.00,weatherlink.com 1.10,2013-11-22 06:09:00,
2013-11-21 20:26:00,71.3,69.0,29.98,SSE,165,0.0,0.0,93,0.00,,,0.00,weatherlink.com 1.10,2013-11-22 06:26:00,
2013-11-21 20:43:00,71.1,69.0,29.98,SSE,165,0.0,0.0,93,0.00,,,0.00,weatherlink.com 1.10,2013-11-22 06:43:00,
2013-11-21 21:01:00,70.6,68.0,29.98,SSE,165,0.0,0.0,93,0.00,,,0.00,weatherlink.com 1.10,2013-11-22 07:01:00,
2013-11-21 21:18:00,70.4,69.0,29.99,SSE,165,0.0,0.0,94,0.00,,,0.00,weatherlink.com 1.10,2013-11-22 07:18:00,
2013-11-21 21:35:00,70.2,68.0,30.00,SSE,165,0.0,0.0,94,0.00,,,0.00,weatherlink.com 1.10,2013-11-22 07:35:00,
2013-11-21 21:53:00,70.0,68.0,30.00,SSE,165,0.0,0.0,94,0.00,,,0.00,weatherlink.com 1.10,2013-11-22 07:53:00,
2013-11-21 22:10:00,69.8,68.0,30.00,SSE,165,0.0,0.0,95,0.00,,,0.00,weatherlink.com 1.10,2013-11-22 08:10:00,
2013-11-21 22:27:00,69.7,68.0,30.00,SSE,165,0.0,0.0,95,0.00,,,0.00,weatherlink.com 1.10,2013-11-22 08:27:00,
2013-11-21 22:45:00,69.5,68.0,30.00,SSE,165,0.0,0.0,95,0.00,,,0.00,weatherlink.com 1.10,2013-11-22 08:45:00,
2013-11-21 23:03:00,69.3,68.0,30.00,SSE,165,0.0,0.0,95,0.00,,,0.00,weatherlink.com 1.10,2013-11-22 09:03:00,
2013-11-21 23:20:00,69.2,68.0,29.99,SSE,165,0.0,0.0,95,0.00,,,0.00,weatherlink.com 1.10,2013-11-22 09:20:00,
2013-11-21 23:37:00,68.9,67.0,29.99,SSE,165,0.0,0.0,95,0.00,,,0.00,weatherlink.com 1.10,2013-11-22 09:37:00,
2013-11-21 23:55:00,69.0,68.0,29.99,SSE,165,0.0,0.0,95,0.00,,,0.00,weatherlink.com 1.10,2013-11-22 09:55:00,